createdAt,value
2022-08-01T00:00:09.912Z,19.58
2022-08-01T00:03:01.902Z,19.58
2022-08-01T00:05:34.140Z,19.52
2022-08-01T00:08:06.289Z,19.53
2022-08-01T00:10:38.237Z,19.49
2022-08-01T00:13:10.490Z,19.42
2022-08-01T00:15:51.801Z,19.46
2022-08-01T00:18:26.233Z,19.44
2022-08-01T00:20:57.841Z,19.37
2022-08-01T00:23:30.080Z,19.37
2022-08-01T00:26:02.260Z,19.38
2022-08-01T00:28:34.052Z,19.39
2022-08-01T00:31:06.178Z,19.38
2022-08-01T00:33:38.002Z,19.33
2022-08-01T00:36:12.266Z,19.33
2022-08-01T00:38:44.592Z,19.33
2022-08-01T00:41:16.339Z,19.30
2022-08-01T00:43:48.012Z,19.29
2022-08-01T00:46:19.770Z,19.26
2022-08-01T00:48:51.628Z,19.23
2022-08-01T00:51:24.321Z,19.19
2022-08-01T00:53:54.962Z,19.19
2022-08-01T00:56:28.682Z,19.16
2022-08-01T00:59:00.480Z,19.20
2022-08-01T01:01:39.853Z,19.21
2022-08-01T01:04:11.915Z,19.16
2022-08-01T01:06:51.016Z,19.22
2022-08-01T01:09:32.884Z,19.25
2022-08-01T01:12:15.586Z,19.24
2022-08-01T01:14:51.032Z,19.20
2022-08-01T01:17:49.748Z,19.18
2022-08-01T01:20:23.614Z,19.13
2022-08-01T01:23:17.012Z,19.06
2022-08-01T01:26:04.261Z,19.10
2022-08-01T01:28:48.195Z,19.07
2022-08-01T01:31:23.673Z,19.11
2022-08-01T01:33:57.416Z,19.12
2022-08-01T01:36:32.067Z,19.12
2022-08-01T01:39:04.526Z,19.12
2022-08-01T01:41:38.464Z,19.06
2022-08-01T01:44:12.511Z,19.05
2022-08-01T01:46:45.981Z,19.08
2022-08-01T01:49:21.692Z,19.05
2022-08-01T01:52:02.632Z,19.01
2022-08-01T01:54:38.905Z,18.98
2022-08-01T01:57:13.910Z,18.99
2022-08-01T01:59:48.411Z,18.93
2022-08-01T02:02:21.077Z,18.88
2022-08-01T02:04:54.052Z,18.85
2022-08-01T02:07:28.441Z,18.88
2022-08-01T02:10:03.011Z,18.83
2022-08-01T02:12:38.396Z,18.80
2022-08-01T02:15:13.998Z,18.80
2022-08-01T02:17:50.868Z,18.79
2022-08-01T02:20:23.243Z,18.75
2022-08-01T02:22:59.840Z,18.79
2022-08-01T02:25:38.613Z,18.81
2022-08-01T02:28:14.426Z,18.76
2022-08-01T02:30:50.810Z,18.78
2022-08-01T02:33:26.773Z,18.80
2022-08-01T02:36:30.094Z,18.76
2022-08-01T02:38:56.692Z,18.78
2022-08-01T02:41:32.708Z,18.85
2022-08-01T02:44:07.272Z,18.76
2022-08-01T02:46:47.483Z,18.81
2022-08-01T02:49:22.085Z,18.82
2022-08-01T02:51:56.441Z,18.76
2022-08-01T02:54:31.107Z,18.72
2022-08-01T02:57:05.474Z,18.75
2022-08-01T02:59:41.700Z,18.77
2022-08-01T03:02:16.258Z,18.82
2022-08-01T03:04:52.624Z,18.82
2022-08-01T03:07:34.639Z,18.83
2022-08-01T03:10:12.604Z,18.83
2022-08-01T03:12:48.255Z,18.86
2022-08-01T03:15:21.564Z,18.81
2022-08-01T03:17:54.926Z,18.86
2022-08-01T03:20:28.791Z,18.78
2022-08-01T03:23:02.096Z,18.82
2022-08-01T03:25:36.867Z,18.82
2022-08-01T03:28:11.205Z,18.82
2022-08-01T03:30:44.794Z,18.83
2022-08-01T03:33:17.279Z,18.85
2022-08-01T03:35:54.734Z,18.89
2022-08-01T03:38:29.157Z,18.89
2022-08-01T03:41:05.206Z,18.88
2022-08-01T03:43:42.657Z,18.90
2022-08-01T03:46:21.152Z,18.93
2022-08-01T03:48:57.126Z,18.97
2022-08-01T03:51:29.642Z,18.99
2022-08-01T03:54:06.173Z,19.05
2022-08-01T03:56:39.405Z,19.09
2022-08-01T03:59:13.037Z,19.08
2022-08-01T04:01:45.521Z,19.05
2022-08-01T04:04:18.051Z,19.10
2022-08-01T04:06:52.186Z,19.17
2022-08-01T04:09:24.429Z,19.20
2022-08-01T04:11:56.078Z,19.15
2022-08-01T04:14:28.586Z,19.08
2022-08-01T04:16:58.817Z,19.13
2022-08-01T04:19:30.565Z,19.22
2022-08-01T04:22:04.076Z,19.28
2022-08-01T04:24:38.325Z,19.18
2022-08-01T04:27:15.517Z,19.23
2022-08-01T04:29:51.435Z,19.31
2022-08-01T04:32:24.762Z,19.37
2022-08-01T04:35:01.023Z,19.41
2022-08-01T04:37:33.693Z,19.41
2022-08-01T04:40:04.029Z,19.46
2022-08-01T04:42:36.358Z,19.50
2022-08-01T04:45:10.830Z,19.52
2022-08-01T04:47:44.542Z,19.57
2022-08-01T04:50:16.820Z,19.57
2022-08-01T04:52:48.596Z,19.54
2022-08-01T04:55:20.838Z,19.51
2022-08-01T04:57:54.172Z,19.50
2022-08-01T05:00:25.880Z,19.52
2022-08-01T05:02:57.885Z,19.49
2022-08-01T05:05:31.475Z,19.53
2022-08-01T05:08:03.161Z,19.54
2022-08-01T05:10:34.844Z,19.57
2022-08-01T05:13:07.545Z,19.58
2022-08-01T05:15:39.024Z,19.59
2022-08-01T05:18:10.765Z,19.61
2022-08-01T05:20:42.677Z,19.62
2022-08-01T05:23:23.221Z,19.63
2022-08-01T05:26:06.369Z,19.68
2022-08-01T05:28:38.105Z,19.74
2022-08-01T05:31:09.803Z,19.72
2022-08-01T05:33:41.546Z,19.75
2022-08-01T05:36:13.570Z,19.75
2022-08-01T05:38:45.322Z,19.73
2022-08-01T05:41:17.053Z,19.70
2022-08-01T05:43:49.046Z,19.68
2022-08-01T05:46:20.812Z,19.67
2022-08-01T05:48:55.411Z,19.68
2022-08-01T05:51:27.576Z,19.66
2022-08-01T05:53:59.611Z,19.61
2022-08-01T05:56:32.463Z,19.58
2022-08-01T05:59:04.502Z,19.62
2022-08-01T06:01:38.500Z,19.64
2022-08-01T06:04:10.407Z,19.67
2022-08-01T06:06:42.462Z,19.72
2022-08-01T06:09:14.378Z,19.77
2022-08-01T06:11:46.577Z,19.80
2022-08-01T06:14:18.671Z,19.81
2022-08-01T06:16:50.920Z,19.86
2022-08-01T06:19:22.552Z,19.89
2022-08-01T06:21:54.269Z,19.91
2022-08-01T06:24:26.121Z,19.95
2022-08-01T06:26:57.957Z,19.95
2022-08-01T06:29:32.079Z,20.00
2022-08-01T06:32:04.522Z,20.02
2022-08-01T06:34:35.333Z,20.09
2022-08-01T06:37:07.313Z,20.11
2022-08-01T06:39:40.116Z,20.15
2022-08-01T06:42:11.982Z,20.17
2022-08-01T06:44:43.677Z,20.16
2022-08-01T06:47:15.773Z,20.19
2022-08-01T06:49:47.609Z,20.19
2022-08-01T06:52:19.305Z,20.21
2022-08-01T06:54:51.173Z,20.23
2022-08-01T06:57:22.989Z,20.22
2022-08-01T06:59:55.148Z,20.26
2022-08-01T07:02:27.187Z,20.17
2022-08-01T07:05:01.436Z,20.19
2022-08-01T07:07:35.749Z,20.18
2022-08-01T07:10:09.916Z,20.18
2022-08-01T07:12:42.027Z,20.23
2022-08-01T07:15:14.865Z,20.25
2022-08-01T07:17:46.922Z,20.27
2022-08-01T07:20:19.127Z,20.29
2022-08-01T07:22:51.401Z,20.32
2022-08-01T07:25:23.471Z,20.41
2022-08-01T07:27:55.203Z,20.42
2022-08-01T07:30:27.741Z,20.40
2022-08-01T07:32:59.893Z,20.36
2022-08-01T07:35:31.735Z,20.29
2022-08-01T07:38:03.751Z,20.38
2022-08-01T07:40:35.699Z,20.41
2022-08-01T07:43:07.471Z,20.45
2022-08-01T07:45:39.139Z,20.34
2022-08-01T07:48:18.348Z,20.39
2022-08-01T07:50:50.187Z,20.35
2022-08-01T07:53:21.945Z,20.44
2022-08-01T07:55:53.955Z,20.46
2022-08-01T07:58:25.621Z,20.51
2022-08-01T08:00:57.319Z,20.60
2022-08-01T08:03:29.198Z,20.48
2022-08-01T08:06:01.171Z,20.60
2022-08-01T08:08:35.578Z,20.56
2022-08-01T08:11:07.411Z,20.64
2022-08-01T08:13:38.997Z,20.59
2022-08-01T08:16:10.731Z,20.68
2022-08-01T08:18:42.517Z,20.55
2022-08-01T08:21:14.246Z,20.55
2022-08-01T08:24:03.969Z,20.69
2022-08-01T08:26:35.809Z,20.77
2022-08-01T08:29:07.510Z,20.90
2022-08-01T08:31:51.947Z,20.95
2022-08-01T08:34:25.228Z,21.02
2022-08-01T08:36:58.888Z,21.22
2022-08-01T08:39:32.658Z,21.39
2022-08-01T08:42:14.613Z,21.32
2022-08-01T08:44:46.681Z,21.43
2022-08-01T08:47:20.772Z,21.49
2022-08-01T08:49:56.090Z,21.54
2022-08-01T08:52:28.309Z,21.58
2022-08-01T08:55:01.340Z,21.79
2022-08-01T08:57:34.265Z,21.86
2022-08-01T09:00:07.979Z,21.91
2022-08-01T09:02:42.270Z,22.05
2022-08-01T09:05:19.318Z,22.02
2022-08-01T09:07:51.589Z,22.09
2022-08-01T09:10:23.843Z,22.20
2022-08-01T09:13:12.116Z,22.20
2022-08-01T09:15:47.304Z,22.14
2022-08-01T09:18:34.842Z,22.19
2022-08-01T09:21:16.296Z,22.32
2022-08-01T09:23:54.201Z,22.45
2022-08-01T09:26:39.757Z,22.57
2022-08-01T09:29:37.534Z,22.63
2022-08-01T09:32:13.945Z,22.75
2022-08-01T09:34:48.132Z,23.04
2022-08-01T09:37:37.536Z,23.15
2022-08-01T09:40:12.632Z,23.24
2022-08-01T09:42:49.795Z,23.38
2022-08-01T09:48:29.540Z,23.56
2022-08-01T09:51:07.188Z,23.60
2022-08-01T09:53:51.147Z,23.74
2022-08-01T09:56:24.792Z,23.98
2022-08-01T09:59:01.963Z,24.14
2022-08-01T10:01:47.413Z,24.31
2022-08-01T10:04:21.214Z,24.39
2022-08-01T10:06:55.443Z,24.55
2022-08-01T10:09:40.721Z,24.58
2022-08-01T10:12:16.362Z,24.66
2022-08-01T10:14:51.278Z,24.85
2022-08-01T10:17:26.152Z,25.08
2022-08-01T10:20:30.512Z,25.11
2022-08-01T10:23:06.382Z,25.41
2022-08-01T10:25:46.588Z,25.43
2022-08-01T10:28:24.035Z,25.56
2022-08-01T10:30:59.154Z,25.49
2022-08-01T10:33:51.172Z,25.42
2022-08-01T10:36:26.482Z,25.31
2022-08-01T10:38:59.383Z,25.24
2022-08-01T10:41:31.734Z,25.19
2022-08-01T10:44:05.692Z,25.12
2022-08-01T10:46:40.184Z,25.13
2022-08-01T10:49:19.585Z,25.04
2022-08-01T10:51:54.706Z,25.03
2022-08-01T10:54:29.169Z,24.99
2022-08-01T10:57:03.811Z,24.93
2022-08-01T10:59:50.801Z,24.88
2022-08-01T11:02:35.657Z,24.85
2022-08-01T11:05:14.198Z,24.87
2022-08-01T11:07:55.058Z,24.80
2022-08-01T11:10:33.321Z,24.73
2022-08-01T11:13:08.464Z,24.65
2022-08-01T11:15:50.203Z,24.50
2022-08-01T11:18:37.796Z,24.38
2022-08-01T11:21:56.405Z,24.38
2022-08-01T11:24:02.208Z,24.41
2022-08-01T11:26:33.940Z,24.46
2022-08-01T11:29:22.411Z,24.60
2022-08-01T11:31:54.828Z,24.66
2022-08-01T11:34:58.244Z,24.79
2022-08-01T11:37:31.149Z,24.91
2022-08-01T11:40:25.007Z,24.86
2022-08-01T11:43:19.754Z,24.84
2022-08-01T11:45:54.199Z,24.78
2022-08-01T11:48:28.926Z,24.53
2022-08-01T11:51:03.074Z,24.32
2022-08-01T11:53:34.813Z,24.35
2022-08-01T11:56:09.756Z,24.55
2022-08-01T11:58:41.530Z,24.69
2022-08-01T12:01:16.468Z,24.85
2022-08-01T12:03:57.528Z,24.93
2022-08-01T12:06:32.118Z,24.89
2022-08-01T12:09:21.360Z,24.92
2022-08-01T12:11:54.352Z,24.87
2022-08-01T12:14:26.770Z,24.82
2022-08-01T12:16:58.974Z,24.87
2022-08-01T12:19:31.772Z,24.95
2022-08-01T12:22:12.967Z,24.97
2022-08-01T12:24:45.541Z,24.94
2022-08-01T12:27:28.135Z,24.98
2022-08-01T12:29:58.838Z,25.07
2022-08-01T12:32:35.937Z,25.17
2022-08-01T12:35:11.604Z,25.25
2022-08-01T12:37:46.515Z,25.25
2022-08-01T12:40:20.609Z,25.24
2022-08-01T12:42:54.705Z,25.17
2022-08-01T12:45:28.699Z,25.10
2022-08-01T12:48:02.186Z,25.15
2022-08-01T12:50:36.583Z,25.03
2022-08-01T12:53:10.592Z,25.03
2022-08-01T12:55:58.551Z,25.07
2022-08-01T12:58:36.121Z,25.08
2022-08-01T13:01:09.530Z,25.13
2022-08-01T13:03:41.997Z,25.05
2022-08-01T13:06:18.214Z,25.05
2022-08-01T13:08:50.167Z,25.02
2022-08-01T13:11:22.392Z,25.06
2022-08-01T13:13:54.777Z,25.18
2022-08-01T13:16:34.712Z,25.32
2022-08-01T13:19:18.643Z,25.49
2022-08-01T13:22:01.097Z,25.75
2022-08-01T13:24:34.901Z,26.10
2022-08-01T13:27:07.587Z,26.07
2022-08-01T13:29:42.475Z,26.01
2022-08-01T13:32:28.061Z,25.76
2022-08-01T13:35:10.364Z,25.66
2022-08-01T13:37:44.278Z,25.78
2022-08-01T13:40:27.445Z,25.92
2022-08-01T13:42:59.237Z,25.98
2022-08-01T13:45:31.289Z,26.28
2022-08-01T13:48:13.064Z,26.59
2022-08-01T13:51:02.225Z,26.66
2022-08-01T13:53:42.624Z,26.62
2022-08-01T13:56:14.611Z,26.51
2022-08-01T13:58:46.727Z,26.66
2022-08-01T14:01:18.804Z,26.88
2022-08-01T14:03:52.064Z,26.68
2022-08-01T14:06:24.383Z,26.36
2022-08-01T14:08:56.152Z,26.14
2022-08-01T14:11:30.315Z,26.08
2022-08-01T14:14:09.571Z,25.92
2022-08-01T14:16:41.284Z,25.85
2022-08-01T14:19:14.050Z,25.85
2022-08-01T14:21:45.843Z,25.81
2022-08-01T14:24:18.835Z,25.74
2022-08-01T14:26:50.683Z,25.65
2022-08-01T14:29:22.447Z,25.51
2022-08-01T14:31:54.188Z,25.50
2022-08-01T14:34:25.931Z,25.54
2022-08-01T14:36:57.667Z,25.65
2022-08-01T14:39:29.526Z,25.74
2022-08-01T14:42:01.708Z,25.90
2022-08-01T14:44:33.483Z,25.92
2022-08-01T14:47:21.337Z,25.78
2022-08-01T14:49:55.323Z,25.88
2022-08-01T14:52:27.404Z,25.84
2022-08-01T14:54:59.874Z,25.83
2022-08-01T14:57:32.019Z,25.79
2022-08-01T15:00:05.810Z,25.81
2022-08-01T15:02:37.639Z,25.94
2022-08-01T15:05:11.310Z,26.06
2022-08-01T15:07:52.308Z,26.31
2022-08-01T15:10:25.918Z,26.55
2022-08-01T15:12:59.532Z,26.56
2022-08-01T15:15:31.860Z,26.36
2022-08-01T15:18:02.274Z,26.30
2022-08-01T15:20:34.384Z,26.24
2022-08-01T15:23:07.238Z,26.13
2022-08-01T15:25:41.899Z,26.16
2022-08-01T15:28:15.706Z,26.16
2022-08-01T15:30:47.712Z,26.14
2022-08-01T15:33:19.432Z,26.11
2022-08-01T15:35:53.083Z,26.56
2022-08-01T15:38:25.109Z,26.92
2022-08-01T15:40:56.900Z,26.59
2022-08-01T15:43:28.652Z,26.39
2022-08-01T15:46:01.242Z,26.35
2022-08-01T15:48:38.278Z,26.15
2022-08-01T15:51:11.949Z,25.97
2022-08-01T15:53:43.871Z,25.60
2022-08-01T15:56:16.069Z,25.46
2022-08-01T15:58:47.985Z,25.49
2022-08-01T16:01:20.429Z,25.38
2022-08-01T16:03:50.752Z,25.29
2022-08-01T16:06:22.734Z,25.08
2022-08-01T16:08:54.880Z,25.25
2022-08-01T16:11:27.954Z,25.56
2022-08-01T16:14:00.686Z,25.95
2022-08-01T16:16:32.606Z,26.07
2022-08-01T16:19:05.765Z,26.24
2022-08-01T16:21:37.477Z,26.10
2022-08-01T16:24:11.866Z,25.92
2022-08-01T16:26:44.128Z,25.70
2022-08-01T16:29:15.880Z,25.66
2022-08-01T16:32:08.093Z,25.33
2022-08-01T16:34:46.666Z,25.41
2022-08-01T16:37:18.910Z,25.37
2022-08-01T16:39:50.721Z,25.25
2022-08-01T16:42:23.203Z,25.19
2022-08-01T16:45:00.305Z,25.05
2022-08-01T16:47:32.022Z,25.07
2022-08-01T16:50:06.213Z,25.00
2022-08-01T16:52:41.778Z,24.89
2022-08-01T16:55:14.144Z,24.92
2022-08-01T16:57:46.060Z,24.87
2022-08-01T17:00:22.729Z,24.81
2022-08-01T17:02:54.981Z,24.77
2022-08-01T17:05:28.612Z,24.70
2022-08-01T17:08:00.385Z,24.73
2022-08-01T17:10:32.223Z,24.76
2022-08-01T17:13:05.140Z,24.66
2022-08-01T17:15:37.541Z,24.58
2022-08-01T17:18:09.817Z,24.56
2022-08-01T17:20:48.523Z,24.48
2022-08-01T17:23:20.554Z,24.52
2022-08-01T17:25:52.831Z,24.42
2022-08-01T17:28:26.262Z,24.43
2022-08-01T17:30:58.214Z,24.46
2022-08-01T17:33:45.583Z,24.41
2022-08-01T17:36:21.114Z,24.31
2022-08-01T17:38:52.801Z,24.37
2022-08-01T17:41:24.650Z,24.27
2022-08-01T17:43:56.905Z,24.31
2022-08-01T17:46:28.739Z,24.40
2022-08-01T17:49:01.873Z,24.45
2022-08-01T17:51:37.039Z,24.28
2022-08-01T17:54:11.640Z,24.30
2022-08-01T17:56:46.083Z,24.28
2022-08-01T17:59:18.012Z,24.17
2022-08-01T18:01:49.767Z,24.16
2022-08-01T18:04:21.509Z,24.16
2022-08-01T18:06:58.470Z,24.08
2022-08-01T18:09:45.676Z,24.10
2022-08-01T18:12:23.379Z,24.07
2022-08-01T18:15:03.425Z,24.13
2022-08-01T18:17:35.918Z,24.13
2022-08-01T18:20:07.592Z,24.05
2022-08-01T18:22:39.452Z,23.98
2022-08-01T18:25:12.112Z,23.94
2022-08-01T18:28:29.389Z,23.97
2022-08-01T18:30:35.458Z,23.88
2022-08-01T18:33:07.365Z,23.91
2022-08-01T18:35:51.929Z,23.87
2022-08-01T18:38:25.085Z,23.81
2022-08-01T18:40:57.646Z,23.70
2022-08-01T18:43:29.806Z,23.72
2022-08-01T18:46:03.093Z,23.63
2022-08-01T18:48:35.062Z,23.61
2022-08-01T18:51:08.531Z,23.57
2022-08-01T18:53:43.434Z,23.44
2022-08-01T18:56:19.113Z,23.32
2022-08-01T18:58:51.567Z,23.28
2022-08-01T19:01:23.894Z,23.34
2022-08-01T19:03:55.925Z,23.36
2022-08-01T19:06:28.396Z,23.44
2022-08-01T19:09:02.294Z,23.33
2022-08-01T19:11:35.509Z,23.20
2022-08-01T19:14:08.089Z,23.13
2022-08-01T19:16:38.403Z,23.11
2022-08-01T19:19:10.475Z,23.13
2022-08-01T19:21:44.910Z,23.27
2022-08-01T19:24:22.618Z,23.25
2022-08-01T19:26:57.355Z,23.25
2022-08-01T19:29:36.218Z,23.27
2022-08-01T19:32:11.231Z,23.10
2022-08-01T19:34:54.684Z,23.17
2022-08-01T19:37:27.513Z,22.96
2022-08-01T19:39:59.875Z,22.91
2022-08-01T19:42:31.855Z,22.88
2022-08-01T19:45:06.068Z,22.83
2022-08-01T19:47:51.764Z,22.90
2022-08-01T19:50:30.378Z,22.89
2022-08-01T19:53:04.853Z,22.76
2022-08-01T19:55:39.902Z,22.63
2022-08-01T19:58:28.816Z,22.73
2022-08-01T20:01:00.772Z,22.75
2022-08-01T20:03:35.331Z,22.64
2022-08-01T20:06:07.863Z,22.64
2022-08-01T20:08:41.489Z,22.61
2022-08-01T20:11:14.612Z,22.55
2022-08-01T20:13:49.540Z,22.44
2022-08-01T20:16:21.706Z,22.45
2022-08-01T20:18:53.917Z,22.35
2022-08-01T20:21:27.658Z,22.28
2022-08-01T20:24:03.304Z,22.29
2022-08-01T20:26:37.525Z,22.28
2022-08-01T20:29:09.250Z,22.26
2022-08-01T20:31:44.275Z,22.26
2022-08-01T20:34:21.284Z,22.23
2022-08-01T20:36:56.481Z,22.16
2022-08-01T20:39:31.126Z,22.19
2022-08-01T20:42:04.767Z,22.22
2022-08-01T20:44:37.204Z,22.19
2022-08-01T20:47:09.645Z,22.15
2022-08-01T20:49:44.475Z,22.16
2022-08-01T20:52:17.102Z,22.19
2022-08-01T20:54:48.884Z,22.20
2022-08-01T20:57:25.443Z,22.14
2022-08-01T21:00:02.779Z,22.05
2022-08-01T21:02:47.990Z,22.07
2022-08-01T21:05:29.327Z,22.09
2022-08-01T21:08:08.800Z,21.99
2022-08-01T21:10:45.470Z,22.01
2022-08-01T21:13:25.660Z,22.01
2022-08-01T21:16:23.999Z,21.97
2022-08-01T21:19:18.619Z,21.96
2022-08-01T21:21:56.129Z,21.94
2022-08-01T21:24:38.405Z,21.85
2022-08-01T21:27:10.731Z,21.80
2022-08-01T21:29:41.550Z,21.82
2022-08-01T21:32:16.035Z,21.86
2022-08-01T21:34:51.914Z,21.83
2022-08-01T21:37:24.535Z,21.75
2022-08-01T21:39:58.869Z,21.71
2022-08-01T21:42:31.038Z,21.76
2022-08-01T21:45:05.875Z,21.76
2022-08-01T21:47:38.953Z,21.82
2022-08-01T21:50:11.184Z,21.80
2022-08-01T21:52:47.074Z,21.76
2022-08-01T21:55:35.102Z,21.80
2022-08-01T21:58:28.242Z,21.80
2022-08-01T22:01:07.956Z,21.74
2022-08-01T22:03:46.219Z,21.72
2022-08-01T22:06:20.400Z,21.66
2022-08-01T22:08:57.644Z,21.65
2022-08-01T22:11:32.681Z,21.70
2022-08-01T22:14:06.225Z,21.69
2022-08-01T22:16:40.851Z,21.70
2022-08-01T22:19:37.568Z,21.67
2022-08-01T22:22:29.111Z,21.61
2022-08-01T22:25:01.097Z,21.73
2022-08-01T22:28:06.673Z,21.72
2022-08-01T22:30:28.570Z,21.75
2022-08-01T22:33:15.398Z,21.76
2022-08-01T22:35:50.864Z,21.69
2022-08-01T22:38:27.084Z,21.64
2022-08-01T22:41:05.415Z,21.54
2022-08-01T22:43:44.163Z,21.64
2022-08-01T22:46:26.628Z,21.57
2022-08-01T22:49:09.703Z,21.55
2022-08-01T22:51:54.844Z,21.56
2022-08-01T22:54:36.218Z,21.49
2022-08-01T22:57:16.255Z,21.48
2022-08-01T22:59:58.633Z,21.48
2022-08-01T23:02:32.825Z,21.46
2022-08-01T23:05:08.162Z,21.43
2022-08-01T23:07:46.330Z,21.42
2022-08-01T23:10:20.446Z,21.34
2022-08-01T23:12:53.416Z,21.38
2022-08-01T23:15:26.930Z,21.34
2022-08-01T23:18:00.989Z,21.37
2022-08-01T23:20:35.071Z,21.45
2022-08-01T23:23:07.522Z,21.46
2022-08-01T23:25:39.939Z,21.46
2022-08-01T23:28:13.548Z,21.44
2022-08-01T23:30:46.125Z,21.34
2022-08-01T23:33:16.239Z,21.35
2022-08-01T23:35:48.354Z,21.33
2022-08-01T23:38:20.340Z,21.30
2022-08-01T23:40:52.407Z,21.35
2022-08-01T23:43:24.550Z,21.32
2022-08-01T23:46:04.533Z,21.36
2022-08-01T23:48:38.599Z,21.40
2022-08-01T23:51:17.286Z,21.36
2022-08-01T23:53:56.049Z,21.37
2022-08-01T23:56:27.840Z,21.40
2022-08-01T23:58:59.670Z,21.34
